createdAt,value
2018-01-13T00:02:21.494Z,97.04
2018-01-13T00:04:49.175Z,97.07
2018-01-13T00:07:16.832Z,97.17
2018-01-13T00:09:44.485Z,97.22
2018-01-13T00:12:12.169Z,97.27
2018-01-13T00:14:39.863Z,97.32
2018-01-13T00:17:07.529Z,97.39
2018-01-13T00:19:35.212Z,97.38
2018-01-13T00:22:02.869Z,97.37
2018-01-13T00:24:30.535Z,97.40
2018-01-13T00:26:58.258Z,97.39
2018-01-13T00:29:25.925Z,97.41
2018-01-13T00:31:53.560Z,97.49
2018-01-13T00:34:21.424Z,97.47
2018-01-13T00:36:49.101Z,97.48
2018-01-13T00:39:16.783Z,97.47
2018-01-13T00:41:44.467Z,97.51
2018-01-13T00:44:12.137Z,97.55
2018-01-13T00:46:39.825Z,97.61
2018-01-13T00:49:07.487Z,97.63
2018-01-13T00:51:35.116Z,97.65
2018-01-13T00:54:03.575Z,97.67
2018-01-13T00:56:31.227Z,97.65
2018-01-13T00:58:58.895Z,97.64
2018-01-13T01:01:26.548Z,97.63
2018-01-13T01:03:54.159Z,97.62
2018-01-13T01:06:22.599Z,97.59
2018-01-13T01:08:51.899Z,97.57
2018-01-13T01:11:19.604Z,97.59
2018-01-13T01:13:48.034Z,97.62
2018-01-13T01:16:15.713Z,97.61
2018-01-13T01:18:43.401Z,97.60
2018-01-13T01:21:13.701Z,97.63
2018-01-13T01:23:41.351Z,97.64
2018-01-13T01:26:08.979Z,97.68
2018-01-13T01:28:36.642Z,97.69
2018-01-13T01:31:04.312Z,97.70
2018-01-13T01:33:31.971Z,97.65
2018-01-13T01:35:59.628Z,97.62
2018-01-13T01:38:27.327Z,97.60
2018-01-13T01:40:56.883Z,97.55
2018-01-13T01:43:24.628Z,97.51
2018-01-13T01:45:52.262Z,97.52
2018-01-13T01:48:27.317Z,97.49
2018-01-13T01:50:55.871Z,97.47
2018-01-13T01:53:23.545Z,97.44
2018-01-13T01:55:51.373Z,97.43
2018-01-13T01:58:20.130Z,97.49
2018-01-13T02:00:47.840Z,97.49
2018-01-13T02:03:15.477Z,97.46
2018-01-13T02:05:43.171Z,97.45
2018-01-13T02:08:10.801Z,97.42
2018-01-13T02:10:38.564Z,97.37
2018-01-13T02:13:06.205Z,97.38
2018-01-13T02:15:33.866Z,97.36
2018-01-13T02:18:01.552Z,97.40
2018-01-13T02:20:29.171Z,97.42
2018-01-13T02:22:56.847Z,97.35
2018-01-13T02:25:24.469Z,97.29
2018-01-13T02:27:52.153Z,97.26
2018-01-13T02:30:19.792Z,97.24
2018-01-13T02:32:47.489Z,97.24
2018-01-13T02:35:15.156Z,97.18
2018-01-13T02:37:44.202Z,97.15
2018-01-13T02:40:12.954Z,97.19
2018-01-13T02:42:42.349Z,97.19
2018-01-13T02:45:10.128Z,97.17
2018-01-13T02:47:37.800Z,97.17
2018-01-13T02:50:05.510Z,97.19
2018-01-13T02:52:33.205Z,97.16
2018-01-13T02:55:00.859Z,97.15
2018-01-13T02:57:29.246Z,97.21
2018-01-13T02:59:56.963Z,97.24
2018-01-13T03:02:24.631Z,97.27
2018-01-13T03:04:52.354Z,97.29
2018-01-13T03:07:20.091Z,97.32
2018-01-13T03:09:47.764Z,97.32
2018-01-13T03:12:15.386Z,97.35
2018-01-13T03:14:43.049Z,97.37
2018-01-13T03:17:10.842Z,97.39
2018-01-13T03:19:38.470Z,97.41
2018-01-13T03:22:06.180Z,97.43
2018-01-13T03:24:33.872Z,97.38
2018-01-13T03:27:01.536Z,97.27
2018-01-13T03:29:30.941Z,97.20
2018-01-13T03:31:58.700Z,96.99
2018-01-13T03:34:26.364Z,96.88
2018-01-13T03:36:54.861Z,96.77
2018-01-13T03:39:24.204Z,96.69
2018-01-13T03:41:51.852Z,96.61
2018-01-13T03:44:19.542Z,96.51
2018-01-13T03:46:47.199Z,96.37
2018-01-13T03:49:14.869Z,96.36
2018-01-13T03:51:42.550Z,96.34
2018-01-13T03:54:10.221Z,96.26
2018-01-13T03:56:37.930Z,96.22
2018-01-13T03:59:05.584Z,96.22
2018-01-13T04:01:34.080Z,96.18
2018-01-13T04:04:01.736Z,96.17
2018-01-13T04:06:29.461Z,96.23
2018-01-13T04:08:57.388Z,96.28
2018-01-13T04:11:25.152Z,96.15
2018-01-13T04:13:53.792Z,96.20
2018-01-13T04:16:21.572Z,96.22
2018-01-13T04:18:49.192Z,96.14
2018-01-13T04:21:16.868Z,96.31
2018-01-13T04:23:44.490Z,96.38
2018-01-13T04:26:12.154Z,96.35
2018-01-13T04:28:39.946Z,96.36
2018-01-13T04:31:09.336Z,96.34
2018-01-13T04:33:37.010Z,96.36
2018-01-13T04:36:05.398Z,96.34
2018-01-13T04:38:33.024Z,96.36
2018-01-13T04:41:00.652Z,96.37
2018-01-13T04:43:28.340Z,96.34
2018-01-13T04:45:55.972Z,96.35
2018-01-13T04:48:23.658Z,96.33
2018-01-13T04:50:52.926Z,96.27
2018-01-13T04:53:21.496Z,96.24
2018-01-13T04:55:49.285Z,96.21
2018-01-13T04:58:16.938Z,96.17
2018-01-13T05:00:44.604Z,96.14
2018-01-13T05:03:12.253Z,96.14
2018-01-13T05:05:40.007Z,96.12
2018-01-13T05:08:07.630Z,96.08
2018-01-13T05:10:37.052Z,96.03
2018-01-13T05:13:05.016Z,95.99
2018-01-13T05:15:32.662Z,95.99
2018-01-13T05:18:00.300Z,95.96
2018-01-13T05:20:28.042Z,95.93
2018-01-13T05:22:55.738Z,95.92
2018-01-13T05:25:23.374Z,95.91
2018-01-13T05:27:51.888Z,95.89
2018-01-13T05:30:19.556Z,95.87
2018-01-13T05:32:47.184Z,95.89
2018-01-13T05:35:14.872Z,95.92
2018-01-13T05:37:43.360Z,95.93
2018-01-13T05:40:11.014Z,95.93
2018-01-13T05:42:38.636Z,95.91
2018-01-13T05:45:06.300Z,95.92
2018-01-13T05:47:33.930Z,95.91
2018-01-13T05:50:01.820Z,95.90
2018-01-13T05:52:29.541Z,95.84
2018-01-13T05:54:57.170Z,95.79
2018-01-13T05:57:24.822Z,95.83
2018-01-13T05:59:52.456Z,95.79
2018-01-13T06:02:20.132Z,95.70
2018-01-13T06:04:47.776Z,95.60
2018-01-13T06:07:15.433Z,95.59
2018-01-13T06:09:43.078Z,95.63
2018-01-13T06:12:10.753Z,95.54
2018-01-13T06:14:38.389Z,95.56
2018-01-13T06:17:06.091Z,95.53
2018-01-13T06:19:35.520Z,95.56
2018-01-13T06:22:03.186Z,95.56
2018-01-13T06:24:31.013Z,95.53
2018-01-13T06:26:58.584Z,95.50
2018-01-13T06:29:26.247Z,95.51
2018-01-13T06:31:54.065Z,95.50
2018-01-13T06:34:22.534Z,95.49
2018-01-13T06:36:50.171Z,95.49
2018-01-13T06:39:17.976Z,95.47
2018-01-13T06:41:48.544Z,95.46
2018-01-13T06:44:16.249Z,95.51
2018-01-13T06:46:44.653Z,95.50
2018-01-13T06:49:12.655Z,95.47
2018-01-13T06:51:40.315Z,95.59
2018-01-13T06:54:07.957Z,95.66
2018-01-13T06:56:35.618Z,95.68
2018-01-13T06:59:03.245Z,95.72
2018-01-13T07:01:31.007Z,95.73
2018-01-13T07:03:58.659Z,95.76
2018-01-13T07:06:27.065Z,95.80
2018-01-13T07:08:54.870Z,95.82
2018-01-13T07:11:23.354Z,95.89
2018-01-13T07:13:51.013Z,95.92
2018-01-13T07:16:18.786Z,95.88
2018-01-13T07:18:46.447Z,95.87
2018-01-13T07:21:14.494Z,95.92
2018-01-13T07:23:42.403Z,95.95
2018-01-13T07:26:10.179Z,95.97
2018-01-13T07:28:40.405Z,96.00
2018-01-13T07:31:08.871Z,95.97
2018-01-13T07:33:36.645Z,95.95
2018-01-13T07:36:04.321Z,95.94
2018-01-13T07:38:31.980Z,95.96
2018-01-13T07:40:59.747Z,95.99
2018-01-13T07:43:27.453Z,96.02
2018-01-13T07:45:55.884Z,96.00
2018-01-13T07:48:23.531Z,96.00
2018-01-13T07:50:51.331Z,96.01
2018-01-13T07:53:21.691Z,96.01
2018-01-13T07:55:49.447Z,95.98
2018-01-13T07:58:17.237Z,96.00
2018-01-13T08:00:44.899Z,95.99
2018-01-13T08:03:12.539Z,96.02
2018-01-13T08:05:40.975Z,95.99
2018-01-13T08:08:08.779Z,95.95
2018-01-13T08:10:37.767Z,96.03
2018-01-13T08:13:05.639Z,96.12
2018-01-13T08:15:34.120Z,96.19
2018-01-13T08:18:01.849Z,96.18
2018-01-13T08:20:29.699Z,96.16
2018-01-13T08:22:57.369Z,96.03
2018-01-13T08:25:25.069Z,95.95
2018-01-13T08:27:52.813Z,95.90
2018-01-13T08:30:20.517Z,95.82
2018-01-13T08:32:48.296Z,95.72
2018-01-13T08:35:17.862Z,95.60
2018-01-13T08:37:45.550Z,95.50
2018-01-13T08:40:14.050Z,95.41
2018-01-13T08:42:41.719Z,95.34
2018-01-13T08:45:10.213Z,95.24
2018-01-13T08:47:38.689Z,95.22
2018-01-13T08:50:06.455Z,95.11
2018-01-13T08:52:34.376Z,95.07
2018-01-13T08:55:03.115Z,94.97
2018-01-13T08:57:30.885Z,95.01
2018-01-13T08:59:58.547Z,95.01
2018-01-13T09:02:27.608Z,94.99
2018-01-13T09:04:57.973Z,95.03
2018-01-13T09:07:25.724Z,94.99
2018-01-13T09:09:53.458Z,94.80
2018-01-13T09:12:21.294Z,94.83
2018-01-13T09:14:49.005Z,94.79
2018-01-13T09:17:16.650Z,94.81
2018-01-13T09:19:46.063Z,94.78
2018-01-13T09:22:13.839Z,94.68
2018-01-13T09:24:43.801Z,94.42
2018-01-13T09:27:11.577Z,94.39
2018-01-13T09:29:39.255Z,94.32
2018-01-13T09:32:11.523Z,94.30
2018-01-13T09:34:39.217Z,94.28
2018-01-13T09:37:07.656Z,94.19
2018-01-13T09:39:35.321Z,94.19
2018-01-13T09:42:03.904Z,93.99
2018-01-13T09:44:31.600Z,93.88
2018-01-13T09:47:00.256Z,93.60
2018-01-13T09:49:27.972Z,93.22
2018-01-13T09:51:57.022Z,92.90
2018-01-13T09:54:25.417Z,92.63
2018-01-13T09:56:54.886Z,92.34
2018-01-13T09:59:22.581Z,92.12
2018-01-13T10:01:52.060Z,92.13
2018-01-13T10:04:19.760Z,92.08
2018-01-13T10:06:48.232Z,91.92
2018-01-13T10:09:15.908Z,91.48
2018-01-13T10:11:46.335Z,91.31
2018-01-13T10:14:14.258Z,91.23
2018-01-13T10:16:44.880Z,90.82
2018-01-13T10:19:12.554Z,90.85
2018-01-13T10:21:40.236Z,90.83
2018-01-13T10:24:08.654Z,90.94
2018-01-13T10:26:36.305Z,90.69
2018-01-13T10:29:04.020Z,90.65
2018-01-13T10:31:31.671Z,90.79
2018-01-13T10:33:59.508Z,90.63
2018-01-13T10:36:27.161Z,90.72
2018-01-13T10:38:54.816Z,90.37
2018-01-13T10:41:22.486Z,89.98
2018-01-13T10:43:50.186Z,90.02
2018-01-13T10:46:20.684Z,90.12
2018-01-13T10:48:48.400Z,89.71
2018-01-13T10:51:16.124Z,89.65
2018-01-13T10:53:43.828Z,89.63
2018-01-13T10:56:11.541Z,89.58
2018-01-13T10:58:39.207Z,89.85
2018-01-13T11:01:09.941Z,89.62
2018-01-13T11:03:38.399Z,89.59
2018-01-13T11:06:06.116Z,89.18
2018-01-13T11:08:34.628Z,89.04
2018-01-13T11:11:02.272Z,89.16
2018-01-13T11:13:30.859Z,89.06
2018-01-13T11:15:58.504Z,88.99
2018-01-13T11:18:26.251Z,88.54
2018-01-13T11:20:54.678Z,88.30
2018-01-13T11:23:22.380Z,88.51
2018-01-13T11:25:50.094Z,88.45
2018-01-13T11:28:17.832Z,88.09
2018-01-13T11:30:45.588Z,87.78
2018-01-13T11:33:13.381Z,87.92
2018-01-13T11:35:41.046Z,87.71
2018-01-13T11:38:09.966Z,87.15
2018-01-13T11:40:37.647Z,87.18
2018-01-13T11:43:05.327Z,87.01
2018-01-13T11:45:33.030Z,86.21
2018-01-13T11:48:01.455Z,86.32
2018-01-13T11:50:29.225Z,86.58
2018-01-13T11:52:56.926Z,87.01
2018-01-13T11:55:24.588Z,87.20
2018-01-13T11:57:52.239Z,87.29
2018-01-13T12:00:19.900Z,87.64
2018-01-13T12:02:47.682Z,86.78
2018-01-13T12:05:15.512Z,86.79
2018-01-13T12:07:44.445Z,86.75
2018-01-13T12:10:14.624Z,86.71
2018-01-13T12:12:42.425Z,86.71
2018-01-13T12:15:12.817Z,86.63
2018-01-13T12:17:40.510Z,86.91
2018-01-13T12:20:08.361Z,87.11
2018-01-13T12:22:36.011Z,86.65
2018-01-13T12:25:04.430Z,86.65
2018-01-13T12:27:32.248Z,86.89
2018-01-13T12:30:00.162Z,87.12
2018-01-13T12:32:27.996Z,87.22
2018-01-13T12:34:58.471Z,87.19
2018-01-13T12:37:26.153Z,87.29
2018-01-13T12:39:53.853Z,87.43
2018-01-13T12:42:21.625Z,87.66
2018-01-13T12:44:50.900Z,87.65
2018-01-13T12:47:18.699Z,87.51
2018-01-13T12:49:46.474Z,87.26
2018-01-13T12:52:14.184Z,87.11
2018-01-13T12:54:43.610Z,86.96
2018-01-13T12:57:13.125Z,86.95
2018-01-13T12:59:40.866Z,87.57
2018-01-13T13:02:10.281Z,87.89
2018-01-13T13:04:38.027Z,88.28
2018-01-13T13:07:05.710Z,88.76
2018-01-13T13:09:33.384Z,89.01
2018-01-13T13:12:01.090Z,88.94
2018-01-13T13:14:28.872Z,89.03
2018-01-13T13:16:57.282Z,88.95
2018-01-13T13:19:24.989Z,89.11
2018-01-13T13:21:52.685Z,89.36
2018-01-13T13:24:20.369Z,89.25
2018-01-13T13:26:48.216Z,89.21
2018-01-13T13:29:15.880Z,88.85
2018-01-13T13:31:46.743Z,89.02
2018-01-13T13:34:14.426Z,88.99
2018-01-13T13:36:42.102Z,89.29
2018-01-13T13:39:11.608Z,89.22
2018-01-13T13:41:39.380Z,89.22
2018-01-13T13:44:07.136Z,88.97
2018-01-13T13:46:35.717Z,88.66
2018-01-13T13:49:03.377Z,88.45
2018-01-13T13:51:31.170Z,88.53
2018-01-13T13:53:58.784Z,88.61
2018-01-13T13:56:26.429Z,88.40
2018-01-13T13:58:55.814Z,88.32
2018-01-13T14:01:28.711Z,88.05
2018-01-13T14:03:51.345Z,87.75
2018-01-13T14:06:19.019Z,87.47
2018-01-13T14:08:46.962Z,87.39
2018-01-13T14:11:14.636Z,87.31
2018-01-13T14:13:43.317Z,87.35
2018-01-13T14:16:10.983Z,87.54
2018-01-13T14:18:39.567Z,87.28
2018-01-13T14:21:07.307Z,87.22
2018-01-13T14:23:34.983Z,87.22
2018-01-13T14:26:05.223Z,87.42
2018-01-13T14:28:32.883Z,87.47
2018-01-13T14:31:00.566Z,86.79
2018-01-13T14:33:28.463Z,86.38
2018-01-13T14:35:56.102Z,86.20
2018-01-13T14:38:23.814Z,86.23
2018-01-13T14:40:52.231Z,86.42
2018-01-13T14:43:20.896Z,86.11
2018-01-13T14:45:48.590Z,86.48
2018-01-13T14:48:16.289Z,86.45
2018-01-13T14:50:44.736Z,86.52
2018-01-13T14:53:15.373Z,86.76
2018-01-13T14:55:43.112Z,86.06
2018-01-13T14:58:10.952Z,86.17
2018-01-13T15:00:38.571Z,86.26
2018-01-13T15:03:08.485Z,86.43
2018-01-13T15:05:37.200Z,86.44
2018-01-13T15:08:04.925Z,86.59
2018-01-13T15:10:34.388Z,86.72
2018-01-13T15:13:02.131Z,86.51
2018-01-13T15:15:29.914Z,86.47
2018-01-13T15:17:57.609Z,86.49
2018-01-13T15:20:25.327Z,86.35
2018-01-13T15:22:53.261Z,86.29
2018-01-13T15:25:21.601Z,85.94
2018-01-13T15:27:49.273Z,85.70
2018-01-13T15:30:16.946Z,85.68
2018-01-13T15:32:44.618Z,85.66
2018-01-13T15:35:13.088Z,85.60
2018-01-13T15:37:42.500Z,85.61
2018-01-13T15:43:07.646Z,85.47
2018-01-13T15:45:36.042Z,85.39
2018-01-13T15:48:05.547Z,85.49
2018-01-13T15:50:41.106Z,85.53
2018-01-13T15:53:12.322Z,85.25
2018-01-13T15:58:44.740Z,84.97
2018-01-13T16:01:20.436Z,84.98
2018-01-13T16:03:51.906Z,85.26
2018-01-13T16:09:00.750Z,85.08
2018-01-13T16:11:29.926Z,85.17
2018-01-13T16:13:58.014Z,85.29
2018-01-13T16:16:31.115Z,85.82
2018-01-13T16:19:01.833Z,85.75
2018-01-13T16:21:32.307Z,85.99
2018-01-13T16:24:03.622Z,85.77
2018-01-13T16:26:35.844Z,85.56
2018-01-13T16:29:10.454Z,85.44
2018-01-13T16:31:39.775Z,85.56
2018-01-13T16:36:50.695Z,85.56
2018-01-13T16:39:21.638Z,85.62
2018-01-13T16:41:53.159Z,85.46
2018-01-13T16:47:05.014Z,85.45
2018-01-13T16:52:07.185Z,85.63
2018-01-13T16:54:43.914Z,85.41
2018-01-13T16:57:14.347Z,85.28
2018-01-13T16:59:45.262Z,85.40
2018-01-13T17:05:04.879Z,85.30
2018-01-13T17:07:32.757Z,85.33
2018-01-13T17:10:00.504Z,85.26
2018-01-13T17:12:33.325Z,85.37
2018-01-13T17:15:03.976Z,85.48
2018-01-13T17:17:33.155Z,85.60
2018-01-13T17:20:01.140Z,85.58
2018-01-13T17:22:28.869Z,85.61
2018-01-13T17:24:56.896Z,85.41
2018-01-13T17:27:31.599Z,85.44
2018-01-13T17:29:59.757Z,85.55
2018-01-13T17:32:27.669Z,85.56
2018-01-13T17:34:55.526Z,85.45
2018-01-13T17:37:25.725Z,85.35
2018-01-13T17:39:57.170Z,85.36
2018-01-13T17:42:28.986Z,85.32
2018-01-13T17:44:58.208Z,85.16
2018-01-13T17:47:26.133Z,85.68
2018-01-13T17:49:56.154Z,85.62
2018-01-13T17:52:25.915Z,85.69
2018-01-13T17:54:54.838Z,85.78
2018-01-13T17:57:23.444Z,86.15
2018-01-13T17:59:52.966Z,86.26
2018-01-13T18:02:22.754Z,86.10
2018-01-13T18:04:55.453Z,86.21
2018-01-13T18:07:23.423Z,85.76
2018-01-13T18:09:51.281Z,85.89
2018-01-13T18:12:21.297Z,85.84
2018-01-13T18:14:49.686Z,85.89
2018-01-13T18:17:17.545Z,86.45
2018-01-13T18:19:47.774Z,86.20
2018-01-13T18:24:50.847Z,86.22
2018-01-13T18:27:21.323Z,86.09
2018-01-13T18:29:55.175Z,86.26
2018-01-13T18:32:25.929Z,86.06
2018-01-13T18:34:58.469Z,86.18
2018-01-13T18:37:29.582Z,86.18
2018-01-13T18:39:58.240Z,86.01
2018-01-13T18:42:26.138Z,85.85
2018-01-13T18:44:56.692Z,85.70
2018-01-13T18:47:26.715Z,85.77
2018-01-13T18:49:57.134Z,85.98
2018-01-13T18:52:26.781Z,85.87
2018-01-13T18:54:56.567Z,85.96
2018-01-13T18:57:25.014Z,85.90
2018-01-13T18:59:53.115Z,85.80
2018-01-13T19:02:26.338Z,85.74
2018-01-13T19:04:56.460Z,85.41
2018-01-13T19:07:27.254Z,85.04
2018-01-13T19:10:00.538Z,84.91
2018-01-13T19:12:28.623Z,84.89
2018-01-13T19:14:59.988Z,84.93
2018-01-13T19:17:28.059Z,85.05
2018-01-13T19:19:56.117Z,85.33
2018-01-13T19:22:27.370Z,85.33
2018-01-13T19:24:55.549Z,85.44
2018-01-13T19:27:23.558Z,85.40
2018-01-13T19:29:53.157Z,85.33
2018-01-13T19:32:21.084Z,85.23
2018-01-13T19:34:51.431Z,85.04
2018-01-13T19:37:23.216Z,85.08
2018-01-13T19:39:52.916Z,85.02
2018-01-13T19:42:23.766Z,84.56
2018-01-13T19:44:55.902Z,84.43
2018-01-13T19:47:24.190Z,84.52
2018-01-13T19:49:54.173Z,84.28
2018-01-13T19:52:22.210Z,84.22
2018-01-13T19:54:50.170Z,84.38
2018-01-13T19:57:18.511Z,84.40
2018-01-13T19:59:47.169Z,84.34
2018-01-13T20:02:20.235Z,84.49
2018-01-13T20:04:49.101Z,84.54
2018-01-13T20:07:18.141Z,84.43
2018-01-13T20:09:46.282Z,84.56
2018-01-13T20:12:14.235Z,84.56
2018-01-13T20:14:42.308Z,84.57
2018-01-13T20:17:10.607Z,84.56
2018-01-13T20:19:40.190Z,84.45
2018-01-13T20:22:08.396Z,84.42
2018-01-13T20:24:36.536Z,84.45
2018-01-13T20:27:06.231Z,84.46
2018-01-13T20:29:34.671Z,84.39
2018-01-13T20:32:02.785Z,84.65
2018-01-13T20:34:31.123Z,84.70
2018-01-13T20:37:00.730Z,84.67
2018-01-13T20:39:30.406Z,84.56
2018-01-13T20:42:00.263Z,84.47
2018-01-13T20:44:28.639Z,84.82
2018-01-13T20:46:58.376Z,84.78
2018-01-13T20:49:29.598Z,84.87
2018-01-13T20:52:04.032Z,84.91
2018-01-13T20:54:34.129Z,85.10
2018-01-13T20:57:02.328Z,85.07
2018-01-13T20:59:30.667Z,85.02
2018-01-13T21:01:58.941Z,84.94
2018-01-13T21:04:29.712Z,84.97
2018-01-13T21:06:57.888Z,85.16
2018-01-13T21:09:25.919Z,85.26
2018-01-13T21:11:54.064Z,85.22
2018-01-13T21:14:28.764Z,85.18
2018-01-13T21:16:58.550Z,85.21
2018-01-13T21:19:26.677Z,85.31
2018-01-13T21:21:54.843Z,85.17
2018-01-13T21:24:23.830Z,85.33
2018-01-13T21:39:55.977Z,85.61
2018-01-13T21:42:24.050Z,85.69
2018-01-13T21:44:52.148Z,85.61
2018-01-13T21:47:22.705Z,85.80
2018-01-13T21:49:50.619Z,85.88
2018-01-13T21:52:18.591Z,85.72
2018-01-13T21:54:46.562Z,85.50
2018-01-13T21:57:14.542Z,85.55
2018-01-13T21:59:43.994Z,85.47
2018-01-13T22:02:12.117Z,85.52
2018-01-13T22:04:40.705Z,85.56
2018-01-13T22:07:08.575Z,85.51
2018-01-13T22:09:36.450Z,85.42
2018-01-13T22:12:06.375Z,85.50
2018-01-13T22:14:35.946Z,85.26
2018-01-13T22:17:04.784Z,85.31
2018-01-13T22:19:34.263Z,85.18
2018-01-13T22:22:10.638Z,85.17
2018-01-13T22:24:38.483Z,85.08
2018-01-13T22:27:07.967Z,84.95
2018-01-13T22:29:35.943Z,84.58
2018-01-13T22:32:06.984Z,84.74
2018-01-13T22:34:34.736Z,84.91
2018-01-13T22:37:02.543Z,84.86
2018-01-13T22:39:32.462Z,84.97
2018-01-13T22:42:02.149Z,84.54
2018-01-13T22:44:33.130Z,84.52
2018-01-13T22:47:03.721Z,84.33
2018-01-13T22:49:32.743Z,84.30
2018-01-13T22:52:03.120Z,84.49
2018-01-13T22:54:31.160Z,84.44
2018-01-13T22:56:59.027Z,84.46
2018-01-13T22:59:27.941Z,84.37
2018-01-13T23:01:58.432Z,84.31
2018-01-13T23:04:26.318Z,84.75
2018-01-13T23:06:54.299Z,84.71
2018-01-13T23:09:22.165Z,84.65
2018-01-13T23:11:51.654Z,84.44
2018-01-13T23:14:21.148Z,84.68
2018-01-13T23:16:51.199Z,84.75
2018-01-13T23:19:20.381Z,84.71
2018-01-13T23:21:49.961Z,84.63
2018-01-13T23:24:18.043Z,84.75
2018-01-13T23:26:45.951Z,85.00
2018-01-13T23:32:06.927Z,85.09
2018-01-13T23:34:36.434Z,85.12
2018-01-13T23:37:04.336Z,85.07
2018-01-13T23:39:34.048Z,85.20
2018-01-13T23:42:01.924Z,85.24
2018-01-13T23:44:29.994Z,85.39
2018-01-13T23:47:03.446Z,85.40
2018-01-13T23:49:31.351Z,85.76
2018-01-13T23:52:00.867Z,85.81
2018-01-13T23:54:28.769Z,85.87
2018-01-13T23:56:56.635Z,85.86
2018-01-13T23:59:26.090Z,85.97
